createdAt,value
2019-05-19T00:03:02.197Z,100.00
2019-05-19T00:06:09.800Z,100.00
2019-05-19T00:09:17.020Z,100.00
2019-05-19T00:12:24.440Z,100.00
2019-05-19T00:15:31.952Z,100.00
2019-05-19T00:18:39.226Z,100.00
2019-05-19T00:21:47.051Z,100.00
2019-05-19T00:24:54.321Z,99.48
2019-05-19T00:28:02.551Z,100.00
2019-05-19T00:31:09.877Z,100.00
2019-05-19T00:34:17.806Z,100.00
2019-05-19T00:37:25.002Z,100.00
2019-05-19T00:40:32.831Z,100.00
2019-05-19T00:43:40.551Z,100.00
2019-05-19T00:46:47.930Z,100.00
2019-05-19T00:49:55.425Z,100.00
2019-05-19T00:53:03.449Z,100.00
2019-05-19T00:56:11.411Z,100.00
2019-05-19T00:59:19.767Z,100.00
2019-05-19T01:02:27.042Z,100.00
2019-05-19T01:05:34.194Z,100.00
2019-05-19T01:08:44.399Z,100.00
2019-05-19T01:11:51.701Z,100.00
2019-05-19T01:14:58.896Z,100.00
2019-05-19T01:18:06.276Z,100.00
2019-05-19T01:21:14.558Z,100.00
2019-05-19T01:24:22.108Z,100.00
2019-05-19T01:27:29.694Z,100.00
2019-05-19T01:30:36.962Z,100.00
2019-05-19T01:33:44.508Z,100.00
2019-05-19T01:36:52.261Z,100.00
2019-05-19T01:40:00.323Z,100.00
2019-05-19T01:43:07.782Z,100.00
2019-05-19T01:46:15.277Z,100.00
2019-05-19T01:49:22.538Z,100.00
2019-05-19T01:52:29.709Z,100.00
2019-05-19T01:55:37.182Z,100.00
2019-05-19T01:58:44.810Z,100.00
2019-05-19T02:02:11.113Z,100.00
2019-05-19T02:05:19.004Z,100.00
2019-05-19T02:08:26.374Z,100.00
2019-05-19T02:11:33.747Z,100.00
2019-05-19T02:14:41.183Z,100.00
2019-05-19T02:17:48.501Z,100.00
2019-05-19T02:20:55.837Z,100.00
2019-05-19T02:24:03.346Z,100.00
2019-05-19T02:27:10.963Z,100.00
2019-05-19T02:30:19.385Z,100.00
2019-05-19T02:33:26.661Z,100.00
2019-05-19T02:36:33.931Z,100.00
2019-05-19T02:39:41.577Z,100.00
2019-05-19T02:42:53.034Z,100.00
2019-05-19T02:46:02.708Z,100.00
2019-05-19T02:49:11.499Z,100.00
2019-05-19T02:52:19.629Z,100.00
2019-05-19T02:55:28.805Z,100.00
2019-05-19T02:58:37.275Z,100.00
2019-05-19T03:02:01.896Z,100.00
2019-05-19T03:05:10.089Z,100.00
2019-05-19T03:08:17.573Z,100.00
2019-05-19T03:11:24.730Z,100.00
2019-05-19T03:14:32.293Z,100.00
2019-05-19T03:17:39.459Z,100.00
2019-05-19T03:20:46.852Z,100.00
2019-05-19T03:23:54.036Z,100.00
2019-05-19T03:27:01.560Z,100.00
2019-05-19T03:30:31.155Z,100.00
2019-05-19T03:33:40.157Z,100.00
2019-05-19T03:36:47.414Z,100.00
2019-05-19T03:39:54.799Z,100.00
2019-05-19T03:43:02.267Z,100.00
2019-05-19T03:46:09.780Z,100.00
2019-05-19T03:49:17.179Z,100.00
2019-05-19T03:52:24.354Z,100.00
2019-05-19T03:55:31.532Z,100.00
2019-05-19T03:58:38.709Z,100.00
2019-05-19T04:01:46.378Z,100.00
2019-05-19T04:04:53.834Z,100.00
2019-05-19T04:08:01.631Z,100.00
2019-05-19T04:11:09.118Z,100.00
2019-05-19T04:14:16.632Z,100.00
2019-05-19T04:17:23.794Z,100.00
2019-05-19T04:20:31.334Z,100.00
2019-05-19T04:23:38.814Z,100.00
2019-05-19T04:26:46.394Z,100.00
2019-05-19T04:29:53.662Z,100.00
2019-05-19T04:33:01.072Z,100.00
2019-05-19T04:36:08.702Z,100.00
2019-05-19T04:39:16.182Z,100.00
2019-05-19T04:42:23.355Z,100.00
2019-05-19T04:45:30.745Z,100.00
2019-05-19T04:48:38.286Z,100.00
2019-05-19T04:51:45.728Z,100.00
2019-05-19T04:54:52.911Z,100.00
2019-05-19T04:58:00.271Z,100.00
2019-05-19T05:01:07.934Z,100.00
2019-05-19T05:04:15.347Z,100.00
2019-05-19T05:07:23.338Z,100.00
2019-05-19T05:10:30.894Z,100.00
2019-05-19T05:13:38.327Z,99.94
2019-05-19T05:16:45.504Z,99.26
2019-05-19T05:19:53.429Z,98.50
2019-05-19T05:23:01.131Z,98.18
2019-05-19T05:26:08.949Z,98.18
2019-05-19T05:29:16.433Z,97.56
2019-05-19T05:32:24.135Z,97.36
2019-05-19T05:35:31.854Z,95.89
2019-05-19T05:38:39.216Z,94.82
2019-05-19T05:41:46.790Z,93.83
2019-05-19T05:44:54.066Z,92.83
2019-05-19T05:48:01.515Z,88.60
2019-05-19T05:51:09.252Z,87.36
2019-05-19T05:54:16.531Z,87.82
2019-05-19T05:57:23.957Z,89.26
2019-05-19T06:00:31.281Z,89.87
2019-05-19T06:03:38.835Z,86.45
2019-05-19T06:06:46.283Z,82.05
2019-05-19T06:09:53.528Z,73.67
2019-05-19T06:13:00.746Z,68.19
2019-05-19T06:16:07.913Z,65.55
2019-05-19T06:19:15.178Z,61.12
2019-05-19T06:22:22.468Z,65.12
2019-05-19T06:25:32.508Z,63.26
2019-05-19T06:28:40.186Z,61.32
2019-05-19T06:31:52.877Z,61.96
2019-05-19T06:35:00.090Z,61.35
2019-05-19T06:38:07.446Z,60.28
2019-05-19T06:41:15.300Z,61.43
2019-05-19T06:44:23.726Z,62.15
2019-05-19T06:50:40.935Z,62.26
2019-05-19T06:53:48.605Z,63.71
2019-05-19T06:56:55.868Z,61.65
2019-05-19T07:00:04.508Z,62.74
2019-05-19T07:03:11.815Z,64.56
2019-05-19T07:06:19.113Z,62.94
2019-05-19T07:09:26.874Z,60.17
2019-05-19T07:12:34.357Z,62.54
2019-05-19T07:15:41.647Z,64.50
2019-05-19T07:18:49.017Z,64.48
2019-05-19T07:21:56.701Z,69.06
2019-05-19T07:25:04.868Z,66.60
2019-05-19T07:28:12.342Z,71.21
2019-05-19T07:31:20.364Z,72.83
2019-05-19T07:34:28.185Z,75.46
2019-05-19T07:37:37.102Z,70.90
2019-05-19T07:40:44.705Z,69.34
2019-05-19T07:43:52.478Z,77.34
2019-05-19T07:47:00.035Z,75.14
2019-05-19T07:50:07.711Z,70.51
2019-05-19T07:53:16.094Z,65.10
2019-05-19T07:56:23.912Z,69.47
2019-05-19T07:59:31.762Z,66.97
2019-05-19T08:02:39.265Z,64.50
2019-05-19T08:05:47.136Z,65.11
2019-05-19T08:08:54.986Z,61.46
2019-05-19T08:12:02.835Z,60.62
2019-05-19T08:15:11.044Z,57.67
2019-05-19T08:18:18.836Z,58.51
2019-05-19T08:21:26.721Z,58.50
2019-05-19T08:24:34.258Z,63.88
2019-05-19T08:27:42.580Z,63.15
2019-05-19T08:30:50.546Z,67.83
2019-05-19T08:33:58.492Z,63.70
2019-05-19T08:37:06.347Z,62.32
2019-05-19T08:40:14.363Z,58.97
2019-05-19T08:43:22.007Z,61.25
2019-05-19T08:46:30.689Z,59.04
2019-05-19T08:49:38.620Z,59.79
2019-05-19T08:52:46.135Z,58.65
2019-05-19T08:55:54.070Z,64.23
2019-05-19T08:59:01.850Z,63.88
2019-05-19T09:02:09.314Z,64.30
2019-05-19T09:05:17.232Z,66.59
2019-05-19T09:08:24.865Z,66.23
2019-05-19T09:11:33.327Z,69.14
2019-05-19T09:14:41.361Z,69.50
2019-05-19T09:17:49.014Z,69.06
2019-05-19T09:20:58.284Z,66.67
2019-05-19T09:24:05.815Z,64.99
2019-05-19T09:27:13.179Z,60.99
2019-05-19T09:30:21.060Z,60.75
2019-05-19T09:33:28.919Z,62.54
2019-05-19T09:36:36.439Z,65.58
2019-05-19T09:39:43.953Z,64.80
2019-05-19T09:42:51.979Z,64.90
2019-05-19T09:45:59.824Z,62.95
2019-05-19T09:49:26.267Z,64.26
2019-05-19T09:52:33.655Z,68.20
2019-05-19T09:55:41.381Z,71.90
2019-05-19T09:58:49.580Z,64.93
2019-05-19T10:01:57.157Z,66.43
2019-05-19T10:05:06.340Z,65.94
2019-05-19T10:08:14.550Z,67.36
2019-05-19T10:12:03.648Z,65.51
2019-05-19T10:15:13.424Z,64.21
2019-05-19T10:18:21.099Z,61.93
2019-05-19T10:21:29.776Z,62.70
2019-05-19T10:24:37.925Z,58.99
2019-05-19T10:27:45.847Z,62.78
2019-05-19T10:30:53.871Z,61.34
2019-05-19T10:34:01.494Z,61.86
2019-05-19T10:37:09.393Z,67.06
2019-05-19T10:40:17.605Z,64.47
2019-05-19T10:43:26.166Z,64.39
2019-05-19T10:46:33.759Z,60.26
2019-05-19T10:49:43.111Z,64.16
2019-05-19T10:52:52.057Z,58.48
2019-05-19T10:55:59.347Z,58.71
2019-05-19T10:59:06.754Z,63.49
2019-05-19T11:02:14.134Z,63.46
2019-05-19T11:05:22.149Z,61.16
2019-05-19T11:08:29.700Z,61.07
2019-05-19T11:11:37.328Z,64.78
2019-05-19T11:14:45.269Z,62.07
2019-05-19T11:17:53.086Z,59.87
2019-05-19T11:21:00.267Z,60.39
2019-05-19T11:24:11.593Z,59.75
2019-05-19T11:27:18.846Z,60.10
2019-05-19T11:30:26.131Z,59.01
2019-05-19T11:33:33.701Z,60.37
2019-05-19T11:36:41.413Z,57.58
2019-05-19T11:39:49.044Z,60.69
2019-05-19T11:42:56.679Z,60.76
2019-05-19T11:46:04.092Z,61.02
2019-05-19T11:49:12.110Z,61.88
2019-05-19T11:52:19.388Z,60.61
2019-05-19T11:55:26.723Z,61.63
2019-05-19T11:58:34.774Z,60.09
2019-05-19T12:01:42.626Z,61.04
2019-05-19T12:04:50.412Z,58.26
2019-05-19T12:07:58.005Z,58.64
2019-05-19T12:11:05.818Z,58.30
2019-05-19T12:14:13.365Z,58.83
2019-05-19T12:17:21.423Z,56.51
2019-05-19T12:20:29.745Z,53.90
2019-05-19T12:23:37.385Z,53.03
2019-05-19T12:26:45.468Z,54.70
2019-05-19T12:29:53.103Z,58.97
2019-05-19T12:33:00.647Z,57.66
2019-05-19T12:36:08.136Z,55.31
2019-05-19T12:39:15.758Z,56.44
2019-05-19T12:42:23.593Z,57.08
2019-05-19T12:45:31.784Z,57.23
2019-05-19T12:48:39.177Z,57.25
2019-05-19T12:51:46.787Z,57.89
2019-05-19T12:54:54.219Z,58.06
2019-05-19T12:58:01.951Z,55.38
2019-05-19T13:01:09.649Z,56.71
2019-05-19T13:04:17.231Z,56.34
2019-05-19T13:07:24.839Z,58.80
2019-05-19T13:10:32.389Z,56.22
2019-05-19T13:13:39.756Z,56.17
2019-05-19T13:16:47.577Z,55.71
2019-05-19T13:19:55.557Z,56.66
2019-05-19T13:23:03.244Z,56.11
2019-05-19T13:26:11.096Z,56.80
2019-05-19T13:29:19.162Z,55.39
2019-05-19T13:32:26.881Z,53.67
2019-05-19T13:35:34.173Z,57.87
2019-05-19T13:38:41.952Z,59.01
2019-05-19T13:41:49.237Z,57.62
2019-05-19T13:44:57.064Z,59.52
2019-05-19T13:48:04.852Z,60.06
2019-05-19T13:51:13.216Z,59.39
2019-05-19T13:54:21.159Z,59.44
2019-05-19T13:57:29.031Z,60.01
2019-05-19T14:00:36.851Z,61.05
2019-05-19T14:03:44.174Z,61.26
2019-05-19T14:06:52.542Z,61.10
2019-05-19T14:10:00.897Z,61.64
2019-05-19T14:13:08.728Z,60.72
2019-05-19T14:16:16.107Z,60.77
2019-05-19T14:19:23.750Z,59.31
2019-05-19T14:22:31.740Z,59.21
2019-05-19T14:25:39.988Z,57.10
2019-05-19T14:28:47.779Z,56.84
2019-05-19T14:31:55.843Z,54.54
2019-05-19T14:35:03.752Z,54.71
2019-05-19T14:38:11.094Z,57.11
2019-05-19T14:41:31.571Z,60.76
2019-05-19T14:44:28.713Z,64.42
2019-05-19T14:47:36.201Z,67.39
2019-05-19T14:50:43.684Z,68.83
2019-05-19T14:53:51.254Z,70.08
2019-05-19T14:56:58.666Z,71.39
2019-05-19T15:00:06.542Z,67.83
2019-05-19T15:03:14.113Z,72.86
2019-05-19T15:06:21.264Z,74.61
2019-05-19T15:09:29.091Z,73.91
2019-05-19T15:12:36.779Z,74.26
2019-05-19T15:15:44.466Z,75.32
2019-05-19T15:18:51.863Z,75.87
2019-05-19T15:21:59.147Z,75.57
2019-05-19T15:25:07.045Z,72.95
2019-05-19T15:28:14.560Z,71.15
2019-05-19T15:31:22.057Z,67.37
2019-05-19T15:34:29.358Z,67.23
2019-05-19T15:37:37.557Z,65.72
2019-05-19T15:40:45.444Z,65.85
2019-05-19T15:43:53.597Z,65.76
2019-05-19T15:47:01.447Z,68.50
2019-05-19T15:50:10.009Z,63.99
2019-05-19T15:53:17.342Z,66.48
2019-05-19T15:56:24.950Z,64.54
2019-05-19T15:59:33.980Z,66.65
2019-05-19T16:02:42.039Z,66.16
2019-05-19T16:05:49.727Z,66.68
2019-05-19T16:08:57.474Z,64.91
2019-05-19T16:12:05.144Z,65.46
2019-05-19T16:15:14.785Z,66.10
2019-05-19T16:18:22.388Z,67.05
2019-05-19T16:21:30.748Z,63.80
2019-05-19T16:24:38.278Z,63.30
2019-05-19T16:27:45.841Z,66.38
2019-05-19T16:30:53.186Z,67.21
2019-05-19T16:34:01.599Z,65.30
2019-05-19T16:37:09.126Z,64.93
2019-05-19T16:40:17.251Z,66.84
2019-05-19T16:43:24.812Z,67.87
2019-05-19T16:46:32.544Z,66.78
2019-05-19T16:49:40.042Z,68.62
2019-05-19T16:52:47.468Z,67.15
2019-05-19T16:55:56.755Z,67.69
2019-05-19T16:59:04.344Z,67.27
2019-05-19T17:02:11.750Z,66.75
2019-05-19T17:05:19.790Z,69.27
2019-05-19T17:08:28.287Z,68.91
2019-05-19T17:11:36.116Z,70.01
2019-05-19T17:14:43.796Z,74.74
2019-05-19T17:17:51.610Z,78.59
2019-05-19T17:20:59.946Z,80.09
2019-05-19T17:24:07.788Z,81.90
2019-05-19T17:27:15.323Z,83.54
2019-05-19T17:30:23.447Z,84.03
2019-05-19T17:33:31.237Z,83.80
2019-05-19T17:36:38.842Z,83.77
2019-05-19T17:39:46.599Z,83.93
2019-05-19T17:42:54.101Z,84.22
2019-05-19T17:46:01.820Z,84.99
2019-05-19T17:49:09.319Z,84.10
2019-05-19T17:52:17.691Z,85.08
2019-05-19T17:55:25.065Z,85.97
2019-05-19T17:58:33.168Z,83.04
2019-05-19T18:01:40.577Z,80.05
2019-05-19T18:04:48.154Z,78.18
2019-05-19T18:07:55.549Z,78.01
2019-05-19T18:11:03.112Z,77.67
2019-05-19T18:14:11.726Z,78.09
2019-05-19T18:17:19.329Z,79.40
2019-05-19T18:20:26.812Z,79.90
2019-05-19T18:23:34.169Z,81.56
2019-05-19T18:26:41.597Z,82.12
2019-05-19T18:29:49.380Z,83.01
2019-05-19T18:32:56.667Z,83.03
2019-05-19T18:36:04.359Z,82.33
2019-05-19T18:39:11.720Z,82.89
2019-05-19T18:42:20.578Z,82.83
2019-05-19T18:45:28.274Z,83.25
2019-05-19T18:48:35.830Z,84.59
2019-05-19T18:51:43.175Z,87.19
2019-05-19T18:54:51.094Z,89.45
2019-05-19T18:57:58.446Z,91.58
2019-05-19T19:01:06.573Z,95.66
2019-05-19T19:04:15.326Z,98.85
2019-05-19T19:07:43.227Z,100.00
2019-05-19T19:10:52.044Z,100.00
2019-05-19T19:14:00.467Z,100.00
2019-05-19T19:17:08.329Z,100.00
2019-05-19T19:20:16.457Z,100.00
2019-05-19T19:23:25.422Z,100.00
2019-05-19T19:26:33.365Z,100.00
2019-05-19T19:29:41.705Z,100.00
2019-05-19T19:32:49.937Z,100.00
2019-05-19T19:35:58.612Z,100.00
2019-05-19T19:39:06.726Z,100.00
2019-05-19T19:42:14.228Z,100.00
2019-05-19T19:45:22.625Z,100.00
2019-05-19T19:48:30.519Z,100.00
2019-05-19T19:51:38.065Z,100.00
2019-05-19T19:54:45.883Z,100.00
2019-05-19T19:57:54.239Z,100.00
2019-05-19T20:01:03.653Z,100.00
2019-05-19T20:04:10.994Z,100.00
2019-05-19T20:07:18.946Z,100.00
2019-05-19T20:10:26.461Z,100.00
2019-05-19T20:13:35.139Z,100.00
2019-05-19T20:16:43.389Z,100.00
2019-05-19T20:19:51.848Z,100.00
2019-05-19T20:23:00.179Z,100.00
2019-05-19T20:26:08.154Z,100.00
2019-05-19T20:29:16.229Z,100.00
2019-05-19T20:32:23.670Z,100.00
2019-05-19T20:35:32.349Z,100.00
2019-05-19T20:38:39.817Z,100.00
2019-05-19T20:41:47.306Z,100.00
2019-05-19T20:44:54.981Z,100.00
2019-05-19T20:48:03.956Z,100.00
2019-05-19T20:51:11.522Z,100.00
2019-05-19T20:54:19.013Z,100.00
2019-05-19T20:57:26.748Z,100.00
2019-05-19T21:00:48.095Z,100.00
2019-05-19T21:03:44.359Z,100.00
2019-05-19T21:06:52.128Z,100.00
2019-05-19T21:09:59.709Z,100.00
2019-05-19T21:13:07.649Z,100.00
2019-05-19T21:16:15.622Z,100.00
2019-05-19T21:19:23.511Z,100.00
2019-05-19T21:22:31.018Z,100.00
2019-05-19T21:25:38.689Z,100.00
2019-05-19T21:28:47.411Z,100.00
2019-05-19T21:31:55.493Z,100.00
2019-05-19T21:35:03.996Z,100.00
2019-05-19T21:38:11.817Z,100.00
2019-05-19T21:41:20.142Z,100.00
2019-05-19T21:44:27.681Z,100.00
2019-05-19T21:47:35.699Z,100.00
2019-05-19T21:50:43.564Z,100.00
2019-05-19T21:53:50.838Z,100.00
2019-05-19T21:56:58.666Z,100.00
2019-05-19T22:00:09.243Z,100.00
2019-05-19T22:03:17.681Z,100.00
2019-05-19T22:06:27.344Z,100.00
2019-05-19T22:09:35.288Z,100.00
2019-05-19T22:12:43.079Z,100.00
2019-05-19T22:15:50.677Z,100.00
2019-05-19T22:18:58.489Z,100.00
2019-05-19T22:22:05.861Z,100.00
2019-05-19T22:25:13.683Z,100.00
2019-05-19T22:28:21.585Z,100.00
2019-05-19T22:31:36.645Z,100.00
2019-05-19T22:34:38.915Z,100.00
2019-05-19T22:37:46.309Z,100.00
2019-05-19T22:40:54.158Z,100.00
2019-05-19T22:44:01.705Z,100.00
2019-05-19T22:47:09.771Z,100.00
2019-05-19T22:50:17.577Z,100.00
2019-05-19T22:53:25.547Z,100.00
2019-05-19T22:56:32.813Z,100.00
2019-05-19T22:59:40.288Z,100.00
2019-05-19T23:02:48.379Z,100.00
2019-05-19T23:05:55.672Z,100.00
2019-05-19T23:09:05.569Z,100.00
2019-05-19T23:12:12.823Z,100.00
2019-05-19T23:15:20.877Z,100.00
2019-05-19T23:18:28.285Z,100.00
2019-05-19T23:21:35.997Z,100.00
2019-05-19T23:24:43.605Z,100.00
2019-05-19T23:27:50.902Z,100.00
2019-05-19T23:30:58.059Z,100.00
2019-05-19T23:34:05.534Z,100.00
2019-05-19T23:37:12.931Z,100.00
2019-05-19T23:40:20.461Z,100.00
2019-05-19T23:43:27.643Z,100.00
2019-05-19T23:46:35.246Z,100.00
2019-05-19T23:49:42.749Z,100.00
2019-05-19T23:52:50.026Z,100.00
2019-05-19T23:55:57.301Z,100.00
2019-05-19T23:59:04.689Z,100.00
